sensor_id;sensor_type;location;lat;lon;timestamp;pressure;altitude;pressure_sealevel;temperature;humidity
5966;BME280;3009;43.224;27.976;2023-04-02T00:01:25;99112.38;;;9.79;100.00
5966;BME280;3009;43.224;27.976;2023-04-02T00:04:03;99122.75;;;9.68;100.00
5966;BME280;3009;43.224;27.976;2023-04-02T00:06:35;99121.16;;;9.67;100.00
5966;BME280;3009;43.224;27.976;2023-04-02T00:09:34;99128.50;;;9.58;100.00
5966;BME280;3009;43.224;27.976;2023-04-02T00:12:17;99123.25;;;9.49;100.00
5966;BME280;3009;43.224;27.976;2023-04-02T00:14:50;99122.56;;;9.40;100.00
5966;BME280;3009;43.224;27.976;2023-04-02T00:17:19;99115.41;;;9.32;100.00
5966;BME280;3009;43.224;27.976;2023-04-02T00:19:51;99123.31;;;9.28;100.00
5966;BME280;3009;43.224;27.976;2023-04-02T00:22:25;99116.72;;;9.26;100.00
5966;BME280;3009;43.224;27.976;2023-04-02T00:24:55;99129.31;;;9.25;100.00
5966;BME280;3009;43.224;27.976;2023-04-02T00:27:25;99121.63;;;9.23;100.00
5966;BME280;3009;43.224;27.976;2023-04-02T00:29:55;99138.13;;;9.26;100.00
5966;BME280;3009;43.224;27.976;2023-04-02T00:32:26;99131.66;;;9.27;100.00
5966;BME280;3009;43.224;27.976;2023-04-02T00:34:55;99141.78;;;9.21;100.00
5966;BME280;3009;43.224;27.976;2023-04-02T00:37:26;99151.56;;;9.17;100.00
5966;BME280;3009;43.224;27.976;2023-04-02T00:40:00;99150.25;;;9.23;99.83
5966;BME280;3009;43.224;27.976;2023-04-02T00:42:34;99148.94;;;9.29;98.34
5966;BME280;3009;43.224;27.976;2023-04-02T00:45:04;99144.13;;;9.22;99.04
5966;BME280;3009;43.224;27.976;2023-04-02T00:47:36;99140.22;;;9.20;99.10
5966;BME280;3009;43.224;27.976;2023-04-02T00:50:18;99146.56;;;9.15;99.24
5966;BME280;3009;43.224;27.976;2023-04-02T00:52:50;99156.34;;;9.11;99.63
5966;BME280;3009;43.224;27.976;2023-04-02T00:55:21;99149.56;;;9.14;99.38
5966;BME280;3009;43.224;27.976;2023-04-02T00:57:54;99168.34;;;9.05;99.92
5966;BME280;3009;43.224;27.976;2023-04-02T01:00:27;99166.66;;;9.00;100.00
5966;BME280;3009;43.224;27.976;2023-04-02T01:03:25;99171.72;;;8.93;100.00
5966;BME280;3009;43.224;27.976;2023-04-02T01:06:00;99163.72;;;8.93;100.00
5966;BME280;3009;43.224;27.976;2023-04-02T01:08:43;99164.63;;;8.97;100.00
5966;BME280;3009;43.224;27.976;2023-04-02T01:14:15;99176.69;;;8.82;100.00
5966;BME280;3009;43.224;27.976;2023-04-02T01:16:52;99168.22;;;8.80;100.00
5966;BME280;3009;43.224;27.976;2023-04-02T01:19:50;99171.88;;;8.76;100.00
5966;BME280;3009;43.224;27.976;2023-04-02T01:22:29;99181.59;;;8.80;100.00
5966;BME280;3009;43.224;27.976;2023-04-02T01:25:03;99172.97;;;8.75;100.00
5966;BME280;3009;43.224;27.976;2023-04-02T01:27:37;99175.44;;;8.80;100.00
5966;BME280;3009;43.224;27.976;2023-04-02T01:30:09;99178.31;;;8.75;100.00
5966;BME280;3009;43.224;27.976;2023-04-02T01:32:41;99176.47;;;8.66;100.00
5966;BME280;3009;43.224;27.976;2023-04-02T01:35:10;99178.56;;;8.61;100.00
5966;BME280;3009;43.224;27.976;2023-04-02T01:37:45;99173.34;;;8.64;100.00
5966;BME280;3009;43.224;27.976;2023-04-02T01:40:30;99171.97;;;8.58;100.00
5966;BME280;3009;43.224;27.976;2023-04-02T01:43:08;99185.53;;;8.53;100.00
5966;BME280;3009;43.224;27.976;2023-04-02T01:45:40;99179.69;;;8.51;100.00
5966;BME280;3009;43.224;27.976;2023-04-02T01:48:13;99180.50;;;8.51;100.00
5966;BME280;3009;43.224;27.976;2023-04-02T01:50:44;99182.25;;;8.39;100.00
5966;BME280;3009;43.224;27.976;2023-04-02T01:53:15;99175.81;;;8.48;100.00
5966;BME280;3009;43.224;27.976;2023-04-02T01:55:46;99175.66;;;8.45;100.00
5966;BME280;3009;43.224;27.976;2023-04-02T01:58:17;99166.53;;;8.46;100.00
5966;BME280;3009;43.224;27.976;2023-04-02T02:00:50;99178.78;;;8.47;100.00
5966;BME280;3009;43.224;27.976;2023-04-02T02:03:20;99184.16;;;8.38;100.00
5966;BME280;3009;43.224;27.976;2023-04-02T02:05:50;99185.56;;;8.36;100.00
5966;BME280;3009;43.224;27.976;2023-04-02T02:08:29;99193.59;;;8.36;100.00
5966;BME280;3009;43.224;27.976;2023-04-02T02:10:58;99200.34;;;8.33;100.00
5966;BME280;3009;43.224;27.976;2023-04-02T02:13:27;99206.00;;;8.31;100.00
5966;BME280;3009;43.224;27.976;2023-04-02T02:15:59;99197.41;;;8.26;100.00
5966;BME280;3009;43.224;27.976;2023-04-02T02:18:30;99208.25;;;8.21;100.00
5966;BME280;3009;43.224;27.976;2023-04-02T02:21:01;99203.09;;;8.15;100.00
5966;BME280;3009;43.224;27.976;2023-04-02T02:23:32;99202.31;;;8.15;100.00
5966;BME280;3009;43.224;27.976;2023-04-02T02:26:00;99208.28;;;8.12;100.00
5966;BME280;3009;43.224;27.976;2023-04-02T02:28:35;99206.91;;;8.06;100.00
5966;BME280;3009;43.224;27.976;2023-04-02T02:31:14;99213.69;;;8.03;100.00
5966;BME280;3009;43.224;27.976;2023-04-02T02:33:48;99207.41;;;7.99;100.00
5966;BME280;3009;43.224;27.976;2023-04-02T02:36:22;99203.00;;;8.03;100.00
5966;BME280;3009;43.224;27.976;2023-04-02T02:38:55;99212.66;;;8.16;100.00
5966;BME280;3009;43.224;27.976;2023-04-02T02:41:29;99210.50;;;8.10;100.00
5966;BME280;3009;43.224;27.976;2023-04-02T02:44:04;99205.03;;;8.06;100.00
5966;BME280;3009;43.224;27.976;2023-04-02T02:46:43;99213.81;;;8.07;100.00
5966;BME280;3009;43.224;27.976;2023-04-02T02:49:14;99212.88;;;8.03;100.00
5966;BME280;3009;43.224;27.976;2023-04-02T02:51:47;99220.75;;;7.99;100.00
5966;BME280;3009;43.224;27.976;2023-04-02T02:54:19;99215.09;;;7.92;100.00
5966;BME280;3009;43.224;27.976;2023-04-02T02:56:51;99218.41;;;7.97;100.00
5966;BME280;3009;43.224;27.976;2023-04-02T02:59:22;99209.13;;;7.95;100.00
5966;BME280;3009;43.224;27.976;2023-04-02T03:01:52;99215.84;;;8.10;100.00
5966;BME280;3009;43.224;27.976;2023-04-02T03:04:22;99217.56;;;8.06;100.00
5966;BME280;3009;43.224;27.976;2023-04-02T03:06:52;99216.88;;;8.26;100.00
5966;BME280;3009;43.224;27.976;2023-04-02T03:09:29;99216.25;;;8.29;100.00
5966;BME280;3009;43.224;27.976;2023-04-02T03:12:03;99211.03;;;8.33;100.00
5966;BME280;3009;43.224;27.976;2023-04-02T03:14:38;99217.31;;;8.46;100.00
5966;BME280;3009;43.224;27.976;2023-04-02T03:17:15;99203.56;;;8.56;100.00
5966;BME280;3009;43.224;27.976;2023-04-02T03:19:49;99207.34;;;8.55;100.00
5966;BME280;3009;43.224;27.976;2023-04-02T03:22:23;99206.50;;;8.63;100.00
5966;BME280;3009;43.224;27.976;2023-04-02T03:24:59;99201.75;;;8.69;100.00
5966;BME280;3009;43.224;27.976;2023-04-02T03:27:33;99205.03;;;8.75;100.00
5966;BME280;3009;43.224;27.976;2023-04-02T03:30:20;99206.94;;;8.74;100.00
5966;BME280;3009;43.224;27.976;2023-04-02T03:32:57;99206.47;;;8.72;100.00
5966;BME280;3009;43.224;27.976;2023-04-02T03:35:32;99204.38;;;8.78;100.00
5966;BME280;3009;43.224;27.976;2023-04-02T03:38:06;99212.72;;;8.76;100.00
5966;BME280;3009;43.224;27.976;2023-04-02T03:40:41;99210.66;;;8.82;100.00
5966;BME280;3009;43.224;27.976;2023-04-02T03:43:16;99213.66;;;8.80;100.00
5966;BME280;3009;43.224;27.976;2023-04-02T03:45:50;99208.16;;;8.77;100.00
5966;BME280;3009;43.224;27.976;2023-04-02T03:48:25;99217.44;;;8.79;100.00
5966;BME280;3009;43.224;27.976;2023-04-02T03:50:58;99225.00;;;8.77;100.00
5966;BME280;3009;43.224;27.976;2023-04-02T03:53:28;99223.75;;;8.75;100.00
5966;BME280;3009;43.224;27.976;2023-04-02T03:55:58;99222.03;;;8.70;100.00
5966;BME280;3009;43.224;27.976;2023-04-02T03:58:32;99228.69;;;8.64;100.00
5966;BME280;3009;43.224;27.976;2023-04-02T04:01:09;99218.84;;;8.77;100.00
5966;BME280;3009;43.224;27.976;2023-04-02T04:03:43;99230.16;;;8.82;100.00
5966;BME280;3009;43.224;27.976;2023-04-02T04:06:18;99231.91;;;8.99;100.00
5966;BME280;3009;43.224;27.976;2023-04-02T04:08:50;99220.59;;;9.57;100.00
5966;BME280;3009;43.224;27.976;2023-04-02T04:11:23;99234.75;;;9.79;98.50
5966;BME280;3009;43.224;27.976;2023-04-02T04:13:56;99233.25;;;9.69;97.87
5966;BME280;3009;43.224;27.976;2023-04-02T04:16:30;99235.44;;;9.54;98.33
5966;BME280;3009;43.224;27.976;2023-04-02T04:19:04;99237.78;;;9.56;99.82
5966;BME280;3009;43.224;27.976;2023-04-02T04:21:34;99235.22;;;10.05;97.16
5966;BME280;3009;43.224;27.976;2023-04-02T04:24:05;99229.03;;;10.88;90.97
5966;BME280;3009;43.224;27.976;2023-04-02T04:26:43;99218.88;;;11.34;86.42
5966;BME280;3009;43.224;27.976;2023-04-02T04:29:26;99227.94;;;11.58;83.53
5966;BME280;3009;43.224;27.976;2023-04-02T04:32:13;99240.81;;;11.24;85.07
5966;BME280;3009;43.224;27.976;2023-04-02T04:34:46;99252.50;;;10.91;86.81
5966;BME280;3009;43.224;27.976;2023-04-02T04:37:23;99256.31;;;10.77;88.60
5966;BME280;3009;43.224;27.976;2023-04-02T04:39:55;99254.31;;;10.62;89.14
5966;BME280;3009;43.224;27.976;2023-04-02T04:42:28;99275.19;;;10.44;90.76
5966;BME280;3009;43.224;27.976;2023-04-02T04:44:59;99280.19;;;10.45;91.34
5966;BME280;3009;43.224;27.976;2023-04-02T04:47:34;99280.31;;;10.37;91.50
5966;BME280;3009;43.224;27.976;2023-04-02T04:50:09;99282.09;;;10.45;91.55
5966;BME280;3009;43.224;27.976;2023-04-02T04:52:40;99284.03;;;10.57;90.77
5966;BME280;3009;43.224;27.976;2023-04-02T04:55:25;99283.34;;;10.60;90.36
5966;BME280;3009;43.224;27.976;2023-04-02T04:57:56;99289.16;;;10.50;90.88
5966;BME280;3009;43.224;27.976;2023-04-02T05:00:34;99293.16;;;10.56;90.92
5966;BME280;3009;43.224;27.976;2023-04-02T05:03:12;99287.91;;;10.59;90.25
5966;BME280;3009;43.224;27.976;2023-04-02T05:05:45;99296.41;;;10.61;90.68
5966;BME280;3009;43.224;27.976;2023-04-02T05:08:18;99298.88;;;10.79;88.54
5966;BME280;3009;43.224;27.976;2023-04-02T05:10:51;99296.75;;;10.85;88.46
5966;BME280;3009;43.224;27.976;2023-04-02T05:13:27;99297.84;;;10.96;87.76
5966;BME280;3009;43.224;27.976;2023-04-02T05:16:04;99294.25;;;11.16;85.86
5966;BME280;3009;43.224;27.976;2023-04-02T05:18:40;99295.59;;;11.23;85.62
5966;BME280;3009;43.224;27.976;2023-04-02T05:21:18;99289.06;;;11.36;84.50
5966;BME280;3009;43.224;27.976;2023-04-02T05:23:52;99305.59;;;11.38;83.53
5966;BME280;3009;43.224;27.976;2023-04-02T05:26:24;99304.25;;;11.44;83.76
5966;BME280;3009;43.224;27.976;2023-04-02T05:28:59;99308.88;;;11.72;82.79
5966;BME280;3009;43.224;27.976;2023-04-02T05:31:36;99302.31;;;11.98;80.96
5966;BME280;3009;43.224;27.976;2023-04-02T05:34:09;99301.41;;;12.22;79.99
5966;BME280;3009;43.224;27.976;2023-04-02T05:36:44;99297.88;;;13.01;76.38
5966;BME280;3009;43.224;27.976;2023-04-02T05:39:20;99315.56;;;14.35;68.23
5966;BME280;3009;43.224;27.976;2023-04-02T05:41:56;99322.44;;;16.27;60.08
5966;BME280;3009;43.224;27.976;2023-04-02T05:44:29;99311.50;;;18.12;52.47
5966;BME280;3009;43.224;27.976;2023-04-02T05:47:03;99306.47;;;18.00;50.15
5966;BME280;3009;43.224;27.976;2023-04-02T05:49:40;99318.50;;;18.13;50.13
5966;BME280;3009;43.224;27.976;2023-04-02T05:52:15;99314.66;;;18.75;48.24
5966;BME280;3009;43.224;27.976;2023-04-02T05:54:47;99313.81;;;19.25;47.22
5966;BME280;3009;43.224;27.976;2023-04-02T05:57:19;99307.84;;;19.70;45.05
5966;BME280;3009;43.224;27.976;2023-04-02T06:00:08;99294.97;;;20.41;43.42
5966;BME280;3009;43.224;27.976;2023-04-02T06:02:43;99292.31;;;19.63;44.13
5966;BME280;3009;43.224;27.976;2023-04-02T06:05:21;99287.84;;;19.10;44.67
5966;BME280;3009;43.224;27.976;2023-04-02T06:07:56;99287.09;;;18.84;46.07
5966;BME280;3009;43.224;27.976;2023-04-02T06:10:28;99282.06;;;18.97;45.28
5966;BME280;3009;43.224;27.976;2023-04-02T06:13:00;99284.78;;;18.43;47.11
5966;BME280;3009;43.224;27.976;2023-04-02T06:15:34;99288.28;;;18.62;46.34
5966;BME280;3009;43.224;27.976;2023-04-02T06:18:06;99292.56;;;18.48;47.40
5966;BME280;3009;43.224;27.976;2023-04-02T06:20:35;99287.13;;;18.34;47.36
5966;BME280;3009;43.224;27.976;2023-04-02T06:23:10;99296.38;;;18.04;47.86
5966;BME280;3009;43.224;27.976;2023-04-02T06:25:43;99300.28;;;18.17;47.83
5966;BME280;3009;43.224;27.976;2023-04-02T06:28:16;99289.00;;;18.01;48.14
5966;BME280;3009;43.224;27.976;2023-04-02T06:30:47;99287.09;;;18.12;47.52
5966;BME280;3009;43.224;27.976;2023-04-02T06:33:16;99287.47;;;18.00;47.38
5966;BME280;3009;43.224;27.976;2023-04-02T06:35:49;99295.66;;;18.47;47.36
5966;BME280;3009;43.224;27.976;2023-04-02T06:38:24;99290.97;;;18.76;46.09
5966;BME280;3009;43.224;27.976;2023-04-02T06:40:57;99274.91;;;17.48;48.84
5966;BME280;3009;43.224;27.976;2023-04-02T06:43:32;99294.16;;;17.29;50.31
5966;BME280;3009;43.224;27.976;2023-04-02T06:46:07;99295.88;;;17.73;49.31
5966;BME280;3009;43.224;27.976;2023-04-02T06:48:43;99294.84;;;18.10;48.48
5966;BME280;3009;43.224;27.976;2023-04-02T06:51:15;99298.38;;;18.29;47.24
5966;BME280;3009;43.224;27.976;2023-04-02T06:53:48;99317.75;;;18.56;46.75
5966;BME280;3009;43.224;27.976;2023-04-02T06:56:37;99307.63;;;18.20;47.46
5966;BME280;3009;43.224;27.976;2023-04-02T06:59:11;99315.41;;;18.29;47.46
5966;BME280;3009;43.224;27.976;2023-04-02T07:01:47;99323.97;;;18.42;46.72
5966;BME280;3009;43.224;27.976;2023-04-02T07:04:20;99329.38;;;18.64;46.28
5966;BME280;3009;43.224;27.976;2023-04-02T07:06:50;99332.56;;;17.45;48.76
5966;BME280;3009;43.224;27.976;2023-04-02T07:09:23;99331.66;;;16.71;51.31
5966;BME280;3009;43.224;27.976;2023-04-02T07:11:55;99340.28;;;16.84;51.38
5966;BME280;3009;43.224;27.976;2023-04-02T07:14:23;99334.28;;;16.60;52.75
5966;BME280;3009;43.224;27.976;2023-04-02T07:16:55;99337.34;;;16.14;53.53
5966;BME280;3009;43.224;27.976;2023-04-02T07:19:23;99327.41;;;15.57;55.96
5966;BME280;3009;43.224;27.976;2023-04-02T07:21:52;99328.34;;;15.12;57.76
5966;BME280;3009;43.224;27.976;2023-04-02T07:24:21;99339.53;;;14.87;59.53
5966;BME280;3009;43.224;27.976;2023-04-02T07:26:50;99333.75;;;14.62;60.59
5966;BME280;3009;43.224;27.976;2023-04-02T07:29:18;99340.56;;;14.56;61.36
5966;BME280;3009;43.224;27.976;2023-04-02T07:31:47;99340.75;;;14.43;62.45
5966;BME280;3009;43.224;27.976;2023-04-02T07:34:15;99346.44;;;14.61;62.82
5966;BME280;3009;43.224;27.976;2023-04-02T07:36:44;99326.25;;;14.51;62.11
5966;BME280;3009;43.224;27.976;2023-04-02T07:39:12;99324.31;;;14.29;63.08
5966;BME280;3009;43.224;27.976;2023-04-02T07:41:52;99319.28;;;14.27;62.91
5966;BME280;3009;43.224;27.976;2023-04-02T07:44:21;99317.97;;;14.41;63.26
5966;BME280;3009;43.224;27.976;2023-04-02T07:46:49;99334.06;;;14.37;64.18
5966;BME280;3009;43.224;27.976;2023-04-02T07:49:18;99334.06;;;14.37;63.89
5966;BME280;3009;43.224;27.976;2023-04-02T07:51:48;99340.75;;;14.43;63.39
5966;BME280;3009;43.224;27.976;2023-04-02T07:54:16;99338.09;;;14.47;63.55
5966;BME280;3009;43.224;27.976;2023-04-02T07:56:45;99356.16;;;14.66;63.83
5966;BME280;3009;43.224;27.976;2023-04-02T07:59:15;99362.47;;;14.74;63.11
5966;BME280;3009;43.224;27.976;2023-04-02T08:01:43;99376.81;;;14.58;63.53
5966;BME280;3009;43.224;27.976;2023-04-02T08:04:16;99372.38;;;14.89;62.97
5966;BME280;3009;43.224;27.976;2023-04-02T08:06:46;99366.97;;;14.89;63.28
5966;BME280;3009;43.224;27.976;2023-04-02T08:09:14;99372.72;;;14.87;63.47
5966;BME280;3009;43.224;27.976;2023-04-02T08:11:43;99385.31;;;15.30;62.36
5966;BME280;3009;43.224;27.976;2023-04-02T08:14:15;99387.69;;;15.08;61.95
5966;BME280;3009;43.224;27.976;2023-04-02T08:16:45;99388.13;;;15.10;62.53
5966;BME280;3009;43.224;27.976;2023-04-02T08:19:15;99393.28;;;14.73;63.94
5966;BME280;3009;43.224;27.976;2023-04-02T08:21:44;99400.91;;;14.67;63.99
5966;BME280;3009;43.224;27.976;2023-04-02T08:24:13;99405.44;;;14.63;64.02
5966;BME280;3009;43.224;27.976;2023-04-02T08:26:45;99409.72;;;14.87;64.29
5966;BME280;3009;43.224;27.976;2023-04-02T08:29:16;99403.44;;;15.02;63.04
5966;BME280;3009;43.224;27.976;2023-04-02T08:31:44;99410.25;;;14.73;63.22
5966;BME280;3009;43.224;27.976;2023-04-02T08:34:13;99413.19;;;14.64;64.11
5966;BME280;3009;43.224;27.976;2023-04-02T08:36:43;99416.31;;;14.89;62.68
5966;BME280;3009;43.224;27.976;2023-04-02T08:39:12;99412.03;;;14.88;62.20
5966;BME280;3009;43.224;27.976;2023-04-02T08:41:44;99421.53;;;15.02;61.22
5966;BME280;3009;43.224;27.976;2023-04-02T08:44:25;99415.03;;;15.30;61.29
5966;BME280;3009;43.224;27.976;2023-04-02T08:47:01;99417.28;;;15.28;60.13
5966;BME280;3009;43.224;27.976;2023-04-02T08:49:34;99409.25;;;15.58;59.42
5966;BME280;3009;43.224;27.976;2023-04-02T08:52:04;99413.50;;;15.59;57.93
5966;BME280;3009;43.224;27.976;2023-04-02T08:54:34;99415.47;;;15.62;58.09
5966;BME280;3009;43.224;27.976;2023-04-02T08:57:06;99434.44;;;15.92;57.13
5966;BME280;3009;43.224;27.976;2023-04-02T08:59:43;99425.28;;;16.01;56.36
5966;BME280;3009;43.224;27.976;2023-04-02T09:02:26;99426.75;;;15.94;57.14
5966;BME280;3009;43.224;27.976;2023-04-02T09:04:57;99443.91;;;15.79;57.18
5966;BME280;3009;43.224;27.976;2023-04-02T09:07:29;99445.97;;;15.89;57.57
5966;BME280;3009;43.224;27.976;2023-04-02T09:09:59;99433.31;;;15.97;56.93
5966;BME280;3009;43.224;27.976;2023-04-02T09:12:29;99432.44;;;16.20;56.45
5966;BME280;3009;43.224;27.976;2023-04-02T09:15:09;99431.72;;;15.92;56.06
5966;BME280;3009;43.224;27.976;2023-04-02T09:17:46;99444.72;;;16.13;56.13
5966;BME280;3009;43.224;27.976;2023-04-02T09:20:22;99432.81;;;16.18;55.76
5966;BME280;3009;43.224;27.976;2023-04-02T09:22:52;99442.13;;;16.21;55.90
5966;BME280;3009;43.224;27.976;2023-04-02T09:25:24;99443.50;;;16.07;55.67
5966;BME280;3009;43.224;27.976;2023-04-02T09:27:55;99446.84;;;15.97;56.65
5966;BME280;3009;43.224;27.976;2023-04-02T09:30:38;99446.44;;;15.95;57.12
5966;BME280;3009;43.224;27.976;2023-04-02T09:33:08;99448.00;;;15.96;57.31
5966;BME280;3009;43.224;27.976;2023-04-02T09:35:55;99448.69;;;15.89;58.29
5966;BME280;3009;43.224;27.976;2023-04-02T09:38:25;99454.13;;;16.23;57.17
5966;BME280;3009;43.224;27.976;2023-04-02T09:40:59;99455.88;;;16.42;57.42
5966;BME280;3009;43.224;27.976;2023-04-02T09:43:30;99451.66;;;16.82;56.57
5966;BME280;3009;43.224;27.976;2023-04-02T09:46:02;99445.84;;;16.80;56.53
5966;BME280;3009;43.224;27.976;2023-04-02T09:48:33;99452.03;;;16.81;55.92
5966;BME280;3009;43.224;27.976;2023-04-02T09:51:05;99456.88;;;16.64;56.27
5966;BME280;3009;43.224;27.976;2023-04-02T09:53:35;99458.38;;;16.58;55.76
5966;BME280;3009;43.224;27.976;2023-04-02T09:56:11;99460.63;;;16.53;55.78
5966;BME280;3009;43.224;27.976;2023-04-02T09:58:41;99460.22;;;16.51;56.11
5966;BME280;3009;43.224;27.976;2023-04-02T10:01:34;99450.09;;;16.44;56.26
5966;BME280;3009;43.224;27.976;2023-04-02T10:04:05;99459.19;;;16.62;56.45
5966;BME280;3009;43.224;27.976;2023-04-02T10:06:34;99459.81;;;16.48;55.89
5966;BME280;3009;43.224;27.976;2023-04-02T10:09:20;99459.47;;;16.50;56.68
5966;BME280;3009;43.224;27.976;2023-04-02T10:11:49;99448.41;;;16.66;55.94
5966;BME280;3009;43.224;27.976;2023-04-02T10:14:21;99455.66;;;16.58;55.31
5966;BME280;3009;43.224;27.976;2023-04-02T10:16:54;99446.47;;;16.29;56.50
5966;BME280;3009;43.224;27.976;2023-04-02T10:19:29;99455.13;;;16.45;55.66
5966;BME280;3009;43.224;27.976;2023-04-02T10:22:02;99456.78;;;16.54;55.86
5966;BME280;3009;43.224;27.976;2023-04-02T10:24:32;99466.97;;;16.68;56.22
5966;BME280;3009;43.224;27.976;2023-04-02T10:27:11;99475.53;;;16.73;55.76
5966;BME280;3009;43.224;27.976;2023-04-02T10:29:55;99485.16;;;16.71;55.75
5966;BME280;3009;43.224;27.976;2023-04-02T10:32:34;99483.81;;;16.50;55.81
5966;BME280;3009;43.224;27.976;2023-04-02T10:35:14;99491.00;;;16.05;57.33
5966;BME280;3009;43.224;27.976;2023-04-02T10:38:05;99491.66;;;15.98;58.06
5966;BME280;3009;43.224;27.976;2023-04-02T10:40:42;99483.41;;;16.18;58.01
5966;BME280;3009;43.224;27.976;2023-04-02T10:43:34;99489.53;;;16.79;56.18
5966;BME280;3009;43.224;27.976;2023-04-02T10:46:09;99498.81;;;16.81;56.22
5966;BME280;3009;43.224;27.976;2023-04-02T10:48:49;99501.94;;;16.83;56.25
5966;BME280;3009;43.224;27.976;2023-04-02T10:51:28;99503.84;;;16.79;55.77
5966;BME280;3009;43.224;27.976;2023-04-02T10:54:04;99501.50;;;17.19;55.00
5966;BME280;3009;43.224;27.976;2023-04-02T10:56:38;99509.81;;;16.96;55.16
5966;BME280;3009;43.224;27.976;2023-04-02T10:59:20;99498.50;;;17.28;54.91
5966;BME280;3009;43.224;27.976;2023-04-02T11:01:51;99511.88;;;17.10;55.29
5966;BME280;3009;43.224;27.976;2023-04-02T11:04:27;99494.41;;;17.00;54.67
5966;BME280;3009;43.224;27.976;2023-04-02T11:06:59;99498.56;;;16.94;55.70
5966;BME280;3009;43.224;27.976;2023-04-02T11:09:42;99485.56;;;17.10;54.94
5966;BME280;3009;43.224;27.976;2023-04-02T11:12:18;99501.03;;;16.72;55.84
5966;BME280;3009;43.224;27.976;2023-04-02T11:14:49;99499.22;;;16.46;56.23
5966;BME280;3009;43.224;27.976;2023-04-02T11:17:19;99500.00;;;16.46;56.11
5966;BME280;3009;43.224;27.976;2023-04-02T11:19:50;99497.28;;;16.46;56.31
5966;BME280;3009;43.224;27.976;2023-04-02T11:22:21;99494.44;;;16.32;56.85
5966;BME280;3009;43.224;27.976;2023-04-02T11:24:51;99503.81;;;16.42;56.29
5966;BME280;3009;43.224;27.976;2023-04-02T11:27:24;99499.44;;;16.68;55.30
5966;BME280;3009;43.224;27.976;2023-04-02T11:30:03;99504.72;;;16.91;55.30
5966;BME280;3009;43.224;27.976;2023-04-02T11:32:34;99499.69;;;16.89;54.14
5966;BME280;3009;43.224;27.976;2023-04-02T11:35:34;99499.91;;;16.73;55.22
5966;BME280;3009;43.224;27.976;2023-04-02T11:41:05;99495.53;;;16.99;52.59
5966;BME280;3009;43.224;27.976;2023-04-02T11:43:49;99492.59;;;16.77;53.32
5966;BME280;3009;43.224;27.976;2023-04-02T11:46:34;99501.88;;;16.76;53.22
5966;BME280;3009;43.224;27.976;2023-04-02T11:49:37;99500.22;;;17.06;53.05
5966;BME280;3009;43.224;27.976;2023-04-02T11:52:26;99497.66;;;17.20;51.31
5966;BME280;3009;43.224;27.976;2023-04-02T11:54:57;99501.56;;;17.23;51.61
5966;BME280;3009;43.224;27.976;2023-04-02T11:57:46;99510.00;;;17.66;51.17
5966;BME280;3009;43.224;27.976;2023-04-02T12:00:28;99501.31;;;17.94;49.01
5966;BME280;3009;43.224;27.976;2023-04-02T12:03:19;99497.81;;;17.94;48.61
5966;BME280;3009;43.224;27.976;2023-04-02T12:05:58;99497.84;;;18.01;48.75
5966;BME280;3009;43.224;27.976;2023-04-02T12:08:39;99510.13;;;17.80;48.26
5966;BME280;3009;43.224;27.976;2023-04-02T12:11:30;99509.63;;;17.67;48.72
5966;BME280;3009;43.224;27.976;2023-04-02T12:14:00;99512.84;;;17.84;48.49
5966;BME280;3009;43.224;27.976;2023-04-02T12:16:32;99507.78;;;17.82;48.30
5966;BME280;3009;43.224;27.976;2023-04-02T12:19:01;99508.47;;;17.68;48.06
5966;BME280;3009;43.224;27.976;2023-04-02T12:21:36;99501.06;;;17.58;48.75
5966;BME280;3009;43.224;27.976;2023-04-02T12:24:16;99511.22;;;17.20;50.71
5966;BME280;3009;43.224;27.976;2023-04-02T12:26:46;99505.34;;;17.14;51.35
5966;BME280;3009;43.224;27.976;2023-04-02T12:29:21;99520.19;;;16.87;52.93
5966;BME280;3009;43.224;27.976;2023-04-02T12:31:52;99507.47;;;16.60;54.03
5966;BME280;3009;43.224;27.976;2023-04-02T12:34:22;99524.97;;;16.36;54.62
5966;BME280;3009;43.224;27.976;2023-04-02T12:36:52;99526.59;;;16.10;56.20
5966;BME280;3009;43.224;27.976;2023-04-02T12:39:22;99525.06;;;16.09;56.98
5966;BME280;3009;43.224;27.976;2023-04-02T12:41:54;99514.53;;;15.77;57.80
5966;BME280;3009;43.224;27.976;2023-04-02T12:44:25;99525.88;;;15.64;58.18
5966;BME280;3009;43.224;27.976;2023-04-02T12:46:54;99530.28;;;15.49;58.82
5966;BME280;3009;43.224;27.976;2023-04-02T12:49:34;99534.97;;;15.52;59.56
5966;BME280;3009;43.224;27.976;2023-04-02T12:52:05;99533.84;;;15.53;61.25
5966;BME280;3009;43.224;27.976;2023-04-02T12:54:42;99526.03;;;15.48;61.72
5966;BME280;3009;43.224;27.976;2023-04-02T12:57:32;99533.50;;;15.31;61.72
5966;BME280;3009;43.224;27.976;2023-04-02T13:00:30;99535.88;;;15.59;61.65
5966;BME280;3009;43.224;27.976;2023-04-02T13:03:01;99535.72;;;15.75;59.92
5966;BME280;3009;43.224;27.976;2023-04-02T13:05:36;99528.97;;;15.62;60.11
5966;BME280;3009;43.224;27.976;2023-04-02T13:08:05;99545.38;;;15.50;60.17
5966;BME280;3009;43.224;27.976;2023-04-02T13:10:35;99533.25;;;15.40;59.19
5966;BME280;3009;43.224;27.976;2023-04-02T13:13:04;99532.47;;;15.39;60.58
5966;BME280;3009;43.224;27.976;2023-04-02T13:15:33;99539.91;;;15.46;61.11
5966;BME280;3009;43.224;27.976;2023-04-02T13:18:05;99529.63;;;15.55;60.23
5966;BME280;3009;43.224;27.976;2023-04-02T13:20:35;99525.31;;;15.51;60.76
5966;BME280;3009;43.224;27.976;2023-04-02T13:23:22;99519.44;;;15.45;61.68
5966;BME280;3009;43.224;27.976;2023-04-02T13:25:53;99518.81;;;15.55;61.81
5966;BME280;3009;43.224;27.976;2023-04-02T13:28:21;99524.78;;;15.41;61.62
5966;BME280;3009;43.224;27.976;2023-04-02T13:30:50;99519.56;;;15.52;62.43
5966;BME280;3009;43.224;27.976;2023-04-02T13:33:18;99508.66;;;15.72;61.20
5966;BME280;3009;43.224;27.976;2023-04-02T13:35:47;99514.25;;;15.83;60.11
5966;BME280;3009;43.224;27.976;2023-04-02T13:38:16;99514.34;;;15.90;59.76
5966;BME280;3009;43.224;27.976;2023-04-02T13:40:44;99521.00;;;15.96;58.52
5966;BME280;3009;43.224;27.976;2023-04-02T13:43:16;99515.59;;;15.96;59.30
5966;BME280;3009;43.224;27.976;2023-04-02T13:45:48;99520.38;;;16.06;59.18
5966;BME280;3009;43.224;27.976;2023-04-02T13:48:18;99518.22;;;16.19;58.39
5966;BME280;3009;43.224;27.976;2023-04-02T13:50:51;99531.47;;;16.28;57.31
5966;BME280;3009;43.224;27.976;2023-04-02T13:53:22;99529.41;;;16.18;54.70
5966;BME280;3009;43.224;27.976;2023-04-02T13:55:51;99523.22;;;15.90;56.22